Scroll down
FLIGHT INFORMATION
Continental Airlines

COA994

At Arrival Gate

KIAD
 KORF
DATE: 2020-01-30
GATE: C22
GATE DEPARTURE: 01:30
TAKEOFF: 01:42
DATE: 2020-01-30
GATE:  -
LANDING: 02:24
GATE ARRIVAL: 02:29
FLIGHT DATA
Crew: 
Speed: 
297 kts
Altitude: 
12,011 ft
Stage Length: 
136.9 nm
Block Time: 
1.2 hrs
Flight Time: 
0.7 hrs
Fuel Used: 
3,904 lb
Cleared Route: 
TRACK DATA
50,000 ft 1,000 kts
AIRCRAFT INFO AND CUMULATIVE STATS
Aircraft Type: 
B737BW
Registration: 
SELCAL: 
JPFG
MSN/LN: 
28950 / 376
Operator: 
Total Flights: 
10
Total Block Time: 
18.7 hrs
Total Flight Time: 
16 hrs
Total Fuel Time: 
85,089 lb
DATALINK LOG | Newest first | Current as of: 2021-06-22 14:40:01
LABEL SEQUENCE CONTENT Dn/Up
QD292902:29 8▼ Dn
QC240102:24▼ Dn
QB435901:42▼ Dn
2U3412KORF 300051Z 07003KT 10SM CLR 05/M02 A3014 RMK AO2 SLP206 T00501022, VATSIM INJECTION▲ Up
2U3412KIAD 300052Z 01003KT 10SM FEW200 02/M06 A3015 RMK AO2 SLP210 T00221061 $, VATSIM INJECTION▲ Up
2S3412KIAD KORF▼ Dn
A33325CLEARED TO KORF VIA KIAD KORF COA994 N14735 . SQUAWK 5522.▲ Up
B33208KIAD KORF COA994 N14735 ▼ Dn
QA315401:30 12▼ Dn
Q02617[LINK ACK]▲ Up
Q02539[LINK TEST]▼ Dn


AIRCRAFT HISTORY
FLIGHT DATE FLIGHT NO. ORIGIN DESTINATION CLEARED ROUTE BLOCK TIME FLIGHT TIME FUEL USED PILOT
2020-10-13COA2201KDCA KPHL KDCA DQO KPHL0.7 hrs0.5 hrs3,647 lbJames W.
2020-07-14COA2201CYYZ KDCA CYYZ MOBEL BIRLI VIDRA DUSOM RIGUS MIKKY PSB SHILO SKILS BAL EYESS BRUNC FELTY HITEK CAVDI KATRN RW011.2 hrs1 hrs6,222 lbRoberto Stopnicki
2020-04-21COA262KBOS CYYZ 1.5 hrs1.4 hrs7,486 lbCharles Harris
2020-04-11COA421KEWR KBOS 1 hrs0.8 hrs4,326 lbKyle Weber
2020-03-06COA1972KIAD KEWR 0.9 hrs0.7 hrs4,553 lbKyle Weber
2020-02-29COA783KLAX KIAD 4.7 hrs4.4 hrs20,770 lbKyle Weber
2020-02-05COA208KIAD KLAX 5.7 hrs5.3 hrs26,596 lbKyle Weber
2020-02-01COA2201KORF KIAD 0.9 hrs0.6 hrs3,923 lbAaron Buchanan
2020-01-30COA994KIAD KORF 1.2 hrs0.7 hrs3,904 lbKyle Weber
2020-01-26COA360KRDU KIAD 0.9 hrs0.7 hrs3,661 lbKyle Weber